createdAt,value
2023-01-04T00:02:29.718Z,1161.28
2023-01-04T00:05:35.920Z,1087.44
2023-01-04T00:08:43.423Z,1028.36
2023-01-04T00:11:49.614Z,973.30
2023-01-04T00:14:59.227Z,1015.30
2023-01-04T00:18:05.901Z,947.98
2023-01-04T00:21:16.239Z,870.65
2023-01-04T00:24:22.823Z,816.39
2023-01-04T00:27:29.686Z,869.37
2023-01-04T00:30:38.416Z,918.95
2023-01-04T00:33:46.040Z,1031.69
2023-01-04T00:36:52.669Z,1116.62
2023-01-04T00:39:59.588Z,959.52
2023-01-04T00:43:05.661Z,913.84
2023-01-04T00:46:15.200Z,781.96
2023-01-04T00:49:21.267Z,724.30
2023-01-04T00:52:28.336Z,683.26
2023-01-04T00:55:34.524Z,657.08
2023-01-04T00:58:41.475Z,670.39
2023-01-04T01:01:51.876Z,701.14
2023-01-04T01:04:58.915Z,717.48
2023-01-04T01:08:24.810Z,709.37
2023-01-04T01:11:32.693Z,701.09
2023-01-04T01:14:38.754Z,689.98
2023-01-04T01:17:48.301Z,710.81
2023-01-04T01:20:54.336Z,719.63
2023-01-04T01:24:02.231Z,717.37
2023-01-04T01:27:08.357Z,711.71
2023-01-04T01:30:16.228Z,694.86
2023-01-04T01:33:25.039Z,677.31
2023-01-04T01:36:32.027Z,634.59
2023-01-04T01:39:38.127Z,624.77
2023-01-04T01:42:44.992Z,632.83
2023-01-04T01:45:55.668Z,609.40
2023-01-04T01:49:15.200Z,587.59
2023-01-04T01:52:30.504Z,541.80
2023-01-04T01:55:40.100Z,512.93
2023-01-04T01:58:55.924Z,466.31
2023-01-04T02:02:02.878Z,436.91
2023-01-04T02:05:13.472Z,413.67
2023-01-04T02:08:25.487Z,397.73
2023-01-04T02:11:32.611Z,391.51
2023-01-04T02:14:38.723Z,371.05
2023-01-04T02:17:58.332Z,371.32
2023-01-04T02:21:17.815Z,363.38
2023-01-04T02:24:58.038Z,347.72
2023-01-04T02:28:14.668Z,337.91
2023-01-04T02:31:40.493Z,336.31
2023-01-04T02:34:59.245Z,338.02
2023-01-04T02:38:23.875Z,323.75
2023-01-04T02:41:37.413Z,315.56
2023-01-04T02:44:53.648Z,323.79
2023-01-04T02:48:19.754Z,321.64
2023-01-04T02:51:34.041Z,323.24
2023-01-04T02:54:42.500Z,317.96
2023-01-04T02:58:08.996Z,343.92
2023-01-04T03:01:45.655Z,345.53
2023-01-04T03:05:21.956Z,356.72
2023-01-04T03:08:37.629Z,369.23
2023-01-04T03:12:04.205Z,383.43
2023-01-04T03:15:20.219Z,384.94
2023-01-04T03:18:34.279Z,385.01
2023-01-04T03:21:49.396Z,398.09
2023-01-04T03:25:10.385Z,404.15
2023-01-04T03:28:36.047Z,456.00
2023-01-04T03:32:04.867Z,465.37
2023-01-04T03:35:23.685Z,483.42
2023-01-04T03:39:04.767Z,475.21
2023-01-04T03:42:35.957Z,439.87
2023-01-04T03:46:04.885Z,390.30
2023-01-04T03:49:25.942Z,377.94
2023-01-04T03:52:38.915Z,364.89
2023-01-04T03:55:51.841Z,368.05
2023-01-04T03:58:59.200Z,407.76
2023-01-04T04:02:08.558Z,398.73
2023-01-04T04:05:35.409Z,393.85
2023-01-04T04:08:41.429Z,393.54
2023-01-04T04:11:51.110Z,383.55
2023-01-04T04:14:57.170Z,387.18
2023-01-04T04:18:04.159Z,381.91
2023-01-04T04:21:10.560Z,383.80
2023-01-04T04:24:23.365Z,374.04
2023-01-04T04:27:32.016Z,372.48
2023-01-04T04:30:40.945Z,412.42
2023-01-04T04:33:47.108Z,642.30
2023-01-04T04:36:54.020Z,762.42
2023-01-04T04:40:00.057Z,563.17
2023-01-04T04:43:09.545Z,438.19
2023-01-04T04:46:15.761Z,396.73
2023-01-04T04:49:22.967Z,368.61
2023-01-04T04:52:29.042Z,358.91
2023-01-04T04:55:35.957Z,349.39
2023-01-04T04:58:44.897Z,335.46
2023-01-04T05:01:52.161Z,330.03
2023-01-04T05:04:58.309Z,300.40
2023-01-04T05:08:05.312Z,293.73
2023-01-04T05:11:14.218Z,284.69
2023-01-04T05:14:21.220Z,267.26
2023-01-04T05:17:27.226Z,259.79
2023-01-04T05:20:34.558Z,255.77
2023-01-04T05:23:40.696Z,246.36
2023-01-04T05:26:47.553Z,247.36
2023-01-04T05:30:08.617Z,250.14
2023-01-04T05:33:15.780Z,231.98
2023-01-04T05:36:21.958Z,223.91
2023-01-04T05:39:28.873Z,241.18
2023-01-04T05:42:34.843Z,241.49
2023-01-04T05:45:46.997Z,223.27
2023-01-04T05:48:53.080Z,218.39
2023-01-04T05:52:00.733Z,227.21
2023-01-04T05:55:07.968Z,223.47
2023-01-04T05:58:15.469Z,225.40
2023-01-04T06:01:24.149Z,213.11
2023-01-04T06:04:31.718Z,212.17
2023-01-04T06:07:37.812Z,209.90
2023-01-04T06:10:44.695Z,214.92
2023-01-04T06:13:50.845Z,214.85
2023-01-04T06:17:00.548Z,228.64
2023-01-04T06:20:09.608Z,233.43
2023-01-04T06:23:16.636Z,226.42
2023-01-04T06:26:23.271Z,233.42
2023-01-04T06:29:31.228Z,252.88
2023-01-04T06:32:40.515Z,278.98
2023-01-04T06:35:47.480Z,282.62
2023-01-04T06:38:53.555Z,294.18
2023-01-04T06:42:06.252Z,280.96
2023-01-04T06:45:14.526Z,266.45
2023-01-04T06:48:24.492Z,262.38
2023-01-04T06:51:30.588Z,262.18
2023-01-04T06:54:37.467Z,270.60
2023-01-04T06:57:43.670Z,277.99
2023-01-04T07:00:50.774Z,274.21
2023-01-04T07:03:59.413Z,246.54
2023-01-04T07:07:06.342Z,227.69
2023-01-04T07:10:13.584Z,221.67
2023-01-04T07:13:21.308Z,217.57
2023-01-04T07:16:27.435Z,214.53
2023-01-04T07:19:38.113Z,208.89
2023-01-04T07:22:44.105Z,213.48
2023-01-04T07:25:50.987Z,212.78
2023-01-04T07:29:09.437Z,215.02
2023-01-04T07:32:16.583Z,231.10
2023-01-04T07:35:26.566Z,241.98
2023-01-04T07:38:33.632Z,248.24
2023-01-04T07:41:40.869Z,261.71
2023-01-04T07:44:48.991Z,268.97
2023-01-04T07:47:55.138Z,279.20
2023-01-04T07:51:04.705Z,264.63
2023-01-04T07:54:12.370Z,260.27
2023-01-04T07:57:19.428Z,267.16
2023-01-04T08:00:25.814Z,263.52
2023-01-04T08:03:32.708Z,249.23
2023-01-04T08:06:43.153Z,227.60
2023-01-04T08:09:50.101Z,197.89
2023-01-04T08:12:56.186Z,212.73
2023-01-04T08:16:03.280Z,216.20
2023-01-04T08:19:15.248Z,240.70
2023-01-04T08:22:24.727Z,274.47
2023-01-04T08:25:30.848Z,272.07
2023-01-04T08:28:38.213Z,256.46
2023-01-04T08:31:45.033Z,236.13
2023-01-04T08:34:52.085Z,225.15
2023-01-04T08:38:28.416Z,211.27
2023-01-04T08:44:58.917Z,196.58
2023-01-04T08:48:07.190Z,188.38
2023-01-04T08:51:16.283Z,189.96
2023-01-04T08:54:25.866Z,190.95
2023-01-04T08:57:31.984Z,192.33
2023-01-04T09:00:38.971Z,191.81
2023-01-04T09:03:45.068Z,209.27
2023-01-04T09:06:51.970Z,223.22
2023-01-04T09:10:01.115Z,196.84
2023-01-04T09:13:08.492Z,183.19
2023-01-04T09:16:22.691Z,186.97
2023-01-04T09:19:29.747Z,187.56
2023-01-04T09:22:35.780Z,187.09
2023-01-04T09:25:45.785Z,167.25
2023-01-04T09:28:52.784Z,183.72
2023-01-04T09:31:59.827Z,185.32
2023-01-04T09:35:06.023Z,168.66
2023-01-04T09:38:13.015Z,168.52
2023-01-04T09:41:30.704Z,166.76
2023-01-04T09:48:25.532Z,147.14
2023-01-04T09:51:42.763Z,179.71
2023-01-04T09:55:02.789Z,175.08
2023-01-04T09:58:36.220Z,157.85
2023-01-04T10:01:54.031Z,149.95
2023-01-04T10:05:06.767Z,134.74
2023-01-04T10:08:21.300Z,133.89
2023-01-04T10:11:53.736Z,132.00
2023-01-04T10:15:32.477Z,127.96
2023-01-04T10:20:07.960Z,116.05
2023-01-04T10:22:34.852Z,123.67
2023-01-04T10:25:57.989Z,137.41
2023-01-04T10:29:50.438Z,161.45
2023-01-04T10:33:15.164Z,168.89
2023-01-04T10:36:28.032Z,161.22
2023-01-04T10:39:39.269Z,157.42
2023-01-04T10:43:02.058Z,161.59
2023-01-04T10:46:20.872Z,164.11
2023-01-04T10:49:45.743Z,164.12
2023-01-04T10:53:07.267Z,151.80
2023-01-04T10:56:27.428Z,148.59
2023-01-04T10:59:48.623Z,140.84
2023-01-04T11:03:10.754Z,135.57
2023-01-04T11:06:30.363Z,132.84
2023-01-04T11:09:46.657Z,130.75
2023-01-04T11:12:53.726Z,130.09
2023-01-04T11:16:01.700Z,133.56
2023-01-04T11:19:12.551Z,129.72
2023-01-04T11:22:31.297Z,142.11
2023-01-04T11:25:55.581Z,145.02
2023-01-04T11:29:08.939Z,151.88
2023-01-04T11:32:27.590Z,121.50
2023-01-04T11:35:46.310Z,123.79
2023-01-04T11:39:00.187Z,115.06
2023-01-04T11:42:08.777Z,118.70
2023-01-04T11:45:24.518Z,129.33
2023-01-04T11:48:41.678Z,116.78
2023-01-04T11:51:48.551Z,117.57
2023-01-04T11:54:57.443Z,115.19
2023-01-04T11:58:16.988Z,115.55
2023-01-04T12:01:27.509Z,119.85
2023-01-04T12:04:35.521Z,134.71
2023-01-04T12:07:42.337Z,133.47
2023-01-04T12:10:52.560Z,109.21
2023-01-04T12:14:00.305Z,122.28
2023-01-04T12:17:17.102Z,105.15
2023-01-04T12:20:30.135Z,92.44
2023-01-04T12:23:37.783Z,86.01
2023-01-04T12:26:47.718Z,89.23
2023-01-04T12:30:06.112Z,105.85
2023-01-04T12:33:42.579Z,104.65
2023-01-04T12:37:05.613Z,106.30
2023-01-04T12:40:57.087Z,99.10
2023-01-04T12:44:56.483Z,91.59
2023-01-04T12:48:52.549Z,97.67
2023-01-04T12:53:28.214Z,94.55
2023-01-04T12:56:12.747Z,76.84
2023-01-04T12:59:38.628Z,78.72
2023-01-04T13:02:48.383Z,75.30
2023-01-04T13:06:04.693Z,76.08
2023-01-04T13:09:25.167Z,88.66
2023-01-04T13:13:01.976Z,87.32
2023-01-04T13:16:25.663Z,88.05
2023-01-04T13:19:34.464Z,95.72
2023-01-04T13:22:57.169Z,106.29
2023-01-04T13:26:32.572Z,106.84
2023-01-04T13:29:40.095Z,93.21
2023-01-04T13:33:24.425Z,103.51
2023-01-04T13:36:15.277Z,99.08
2023-01-04T13:39:27.526Z,108.16
2023-01-04T13:42:39.367Z,105.56
2023-01-04T13:46:14.448Z,102.53
2023-01-04T13:49:21.175Z,108.98
2023-01-04T13:56:02.494Z,98.88
2023-01-04T13:59:12.269Z,90.62
2023-01-04T14:02:24.557Z,79.60
2023-01-04T14:05:31.644Z,87.55
2023-01-04T14:08:44.045Z,74.81
2023-01-04T14:15:33.988Z,70.21
2023-01-04T14:18:41.838Z,78.10
2023-01-04T14:21:49.631Z,69.71
2023-01-04T14:25:09.399Z,72.46
2023-01-04T14:28:49.555Z,94.70
2023-01-04T14:31:57.139Z,80.71
2023-01-04T14:35:17.979Z,77.26
2023-01-04T14:38:25.097Z,73.56
2023-01-04T14:41:38.041Z,75.33
2023-01-04T14:44:47.666Z,77.77
2023-01-04T14:47:53.835Z,74.39
2023-01-04T14:51:03.687Z,82.85
2023-01-04T14:54:11.059Z,74.47
2023-01-04T14:57:18.494Z,76.08
2023-01-04T15:00:27.191Z,76.83
2023-01-04T15:03:34.279Z,86.17
2023-01-04T15:06:50.375Z,67.15
2023-01-04T15:09:57.331Z,63.69
2023-01-04T15:13:04.593Z,75.14
2023-01-04T15:16:18.011Z,74.16
2023-01-04T15:19:24.159Z,77.52
2023-01-04T15:22:31.245Z,85.61
2023-01-04T15:25:37.804Z,93.21
2023-01-04T15:28:44.683Z,156.64
2023-01-04T15:31:53.460Z,119.05
2023-01-04T15:35:00.287Z,124.18
2023-01-04T15:38:06.825Z,167.23
2023-01-04T15:41:38.417Z,133.85
2023-01-04T15:44:46.095Z,110.36
2023-01-04T15:47:57.925Z,134.13
2023-01-04T15:51:07.987Z,117.37
2023-01-04T15:54:15.429Z,108.26
2023-01-04T15:57:21.499Z,93.18
2023-01-04T16:00:28.716Z,103.89
2023-01-04T16:03:38.135Z,118.71
2023-01-04T16:06:45.120Z,111.12
2023-01-04T16:09:51.251Z,113.35
2023-01-04T16:12:58.261Z,109.09
2023-01-04T16:16:04.500Z,118.72
2023-01-04T16:19:14.044Z,105.68
2023-01-04T16:22:20.247Z,126.37
2023-01-04T16:25:27.213Z,116.02
2023-01-04T16:28:33.177Z,104.54
2023-01-04T16:31:43.212Z,119.58
2023-01-04T16:34:53.881Z,124.98
2023-01-04T16:38:02.436Z,105.82
2023-01-04T16:41:10.652Z,90.29
2023-01-04T16:44:17.648Z,102.45
2023-01-04T16:47:23.972Z,87.71
2023-01-04T16:50:33.589Z,108.94
2023-01-04T16:53:40.900Z,110.36
2023-01-04T16:56:50.286Z,101.71
2023-01-04T16:59:56.373Z,126.01
2023-01-04T17:03:03.429Z,144.93
2023-01-04T17:06:16.882Z,138.24
2023-01-04T17:09:24.757Z,140.94
2023-01-04T17:12:48.362Z,127.42
2023-01-04T17:15:55.972Z,128.30
2023-01-04T17:19:02.865Z,109.74
2023-01-04T17:22:12.332Z,120.28
2023-01-04T17:25:18.410Z,120.14
2023-01-04T17:28:25.463Z,125.66
2023-01-04T17:31:35.418Z,146.26
2023-01-04T17:34:42.527Z,123.19
2023-01-04T17:37:51.155Z,135.83
2023-01-04T17:40:57.961Z,99.91
2023-01-04T17:44:06.961Z,97.09
2023-01-04T17:47:13.874Z,98.78
2023-01-04T17:50:20.736Z,105.43
2023-01-04T17:53:30.228Z,93.26
2023-01-04T17:56:37.890Z,83.17
2023-01-04T17:59:45.266Z,85.20
2023-01-04T18:02:51.307Z,75.61
2023-01-04T18:06:24.364Z,70.43
2023-01-04T18:09:28.052Z,75.51
2023-01-04T18:12:36.127Z,97.79
2023-01-04T18:15:55.003Z,95.41
2023-01-04T18:19:09.408Z,123.29
2023-01-04T18:22:15.591Z,96.62
2023-01-04T18:25:25.221Z,87.82
2023-01-04T18:28:31.591Z,125.13
2023-01-04T18:31:38.915Z,119.59
2023-01-04T18:34:45.316Z,125.06
2023-01-04T18:37:52.303Z,110.18
2023-01-04T18:41:01.014Z,105.04
2023-01-04T18:44:31.643Z,94.06
2023-01-04T18:47:34.994Z,140.65
2023-01-04T18:50:41.921Z,148.94
2023-01-04T18:53:48.090Z,163.01
2023-01-04T18:57:00.965Z,135.00
2023-01-04T19:00:08.903Z,135.88
2023-01-04T19:03:18.623Z,125.53
2023-01-04T19:06:27.121Z,140.59
2023-01-04T19:09:34.392Z,154.59
2023-01-04T19:12:43.380Z,163.61
2023-01-04T19:15:50.463Z,174.46
2023-01-04T19:18:57.799Z,163.33
2023-01-04T19:22:04.854Z,142.77
2023-01-04T19:25:11.413Z,141.12
2023-01-04T19:28:21.035Z,151.58
2023-01-04T19:31:27.054Z,146.94
2023-01-04T19:34:33.989Z,168.43
2023-01-04T19:37:39.969Z,138.80
2023-01-04T19:40:46.996Z,128.42
2023-01-04T19:43:55.600Z,113.66
2023-01-04T19:47:02.693Z,102.90
2023-01-04T19:50:10.899Z,96.87
2023-01-04T19:53:18.109Z,108.39
2023-01-04T19:56:28.583Z,102.21
2023-01-04T19:59:38.088Z,90.99
2023-01-04T20:02:44.857Z,88.19
2023-01-04T20:05:52.026Z,91.33
2023-01-04T20:08:58.990Z,85.71
2023-01-04T20:12:06.510Z,88.04
2023-01-04T20:15:16.310Z,124.17
2023-01-04T20:18:24.197Z,105.33
2023-01-04T20:21:30.449Z,125.50
2023-01-04T20:24:37.431Z,118.61
2023-01-04T20:27:43.700Z,126.19
2023-01-04T20:31:06.116Z,109.05
2023-01-04T20:34:12.475Z,105.06
2023-01-04T20:37:19.499Z,124.00
2023-01-04T20:40:25.784Z,143.33
2023-01-04T20:43:37.279Z,114.19
2023-01-04T20:46:48.240Z,122.04
2023-01-04T20:49:55.485Z,115.48
2023-01-04T20:53:01.685Z,127.85
2023-01-04T20:56:11.619Z,195.36
2023-01-04T20:59:17.979Z,165.27
2023-01-04T21:02:27.761Z,186.10
2023-01-04T21:05:37.477Z,157.01
2023-01-04T21:08:46.812Z,123.08
2023-01-04T21:11:55.745Z,113.53
2023-01-04T21:15:02.790Z,114.77
2023-01-04T21:18:12.815Z,104.32
2023-01-04T21:21:22.114Z,96.10
2023-01-04T21:24:28.257Z,104.51
2023-01-04T21:27:35.938Z,96.50
2023-01-04T21:30:43.850Z,90.39
2023-01-04T21:33:54.918Z,100.23
2023-01-04T21:37:01.060Z,107.37
2023-01-04T21:40:09.974Z,95.95
2023-01-04T21:43:21.072Z,100.30
2023-01-04T21:46:29.766Z,94.23
2023-01-04T21:49:44.048Z,88.45
2023-01-04T21:52:51.126Z,100.45
2023-01-04T21:56:02.295Z,88.79
2023-01-04T21:59:09.129Z,91.00
2023-01-04T22:02:21.033Z,98.47
2023-01-04T22:05:30.744Z,108.87
2023-01-04T22:08:38.432Z,136.57
2023-01-04T22:11:46.107Z,140.80
2023-01-04T22:14:52.127Z,164.13
2023-01-04T22:17:58.984Z,135.59
2023-01-04T22:21:11.853Z,106.06
2023-01-04T22:24:19.470Z,95.74
2023-01-04T22:27:25.530Z,102.89
2023-01-04T22:30:32.613Z,96.74
2023-01-04T22:33:40.033Z,95.62
2023-01-04T22:36:49.573Z,91.27
2023-01-04T22:39:55.568Z,83.94
2023-01-04T22:43:02.397Z,100.37
2023-01-04T22:46:13.448Z,115.88
2023-01-04T22:49:20.365Z,111.72
2023-01-04T22:52:29.076Z,105.53
2023-01-04T22:56:08.904Z,105.54
2023-01-04T22:59:02.209Z,99.32
2023-01-04T23:02:09.376Z,103.27
2023-01-04T23:05:15.637Z,103.77
2023-01-04T23:08:25.185Z,99.78
2023-01-04T23:11:35.452Z,91.03
2023-01-04T23:14:42.411Z,77.59
2023-01-04T23:17:48.611Z,85.36
2023-01-04T23:20:58.846Z,94.51
2023-01-04T23:24:08.456Z,125.54
2023-01-04T23:27:15.274Z,130.18
2023-01-04T23:30:21.794Z,100.36
2023-01-04T23:33:33.969Z,78.47
2023-01-04T23:36:45.106Z,81.69
2023-01-04T23:39:55.442Z,86.88
2023-01-04T23:43:01.705Z,76.48
2023-01-04T23:49:16.211Z,72.87
2023-01-04T23:52:23.363Z,73.59
2023-01-04T23:55:32.094Z,71.07
2023-01-04T23:58:38.944Z,72.31
